sensor_id;sensor_type;location;lat;lon;timestamp;pressure;altitude;pressure_sealevel;temperature;humidity
23016;BME280;11674;52.428;13.584;2023-02-26T00:00:00;100934.03;;;2.35;82.82
23016;BME280;11674;52.428;13.584;2023-02-26T00:05:08;100938.66;;;2.34;82.86
23016;BME280;11674;52.428;13.584;2023-02-26T00:10:15;100939.34;;;2.30;82.99
23016;BME280;11674;52.428;13.584;2023-02-26T00:15:22;100944.22;;;2.28;82.89
23016;BME280;11674;52.428;13.584;2023-02-26T00:20:29;100953.50;;;2.27;82.89
23016;BME280;11674;52.428;13.584;2023-02-26T00:25:39;100961.69;;;2.27;82.95
23016;BME280;11674;52.428;13.584;2023-02-26T00:30:46;100967.41;;;2.25;83.16
23016;BME280;11674;52.428;13.584;2023-02-26T00:36:02;100969.06;;;2.26;83.11
23016;BME280;11674;52.428;13.584;2023-02-26T00:41:09;100979.19;;;2.26;83.08
23016;BME280;11674;52.428;13.584;2023-02-26T00:56:50;101003.25;;;2.35;83.19
23016;BME280;11674;52.428;13.584;2023-02-26T01:01:58;101003.88;;;2.37;83.16
23016;BME280;11674;52.428;13.584;2023-02-26T01:07:08;100999.84;;;2.40;83.40
23016;BME280;11674;52.428;13.584;2023-02-26T01:12:16;101004.25;;;2.41;83.27
23016;BME280;11674;52.428;13.584;2023-02-26T01:22:54;101024.97;;;2.48;83.40
23016;BME280;11674;52.428;13.584;2023-02-26T01:28:03;101031.03;;;2.50;83.16
23016;BME280;11674;52.428;13.584;2023-02-26T01:33:35;101031.03;;;2.50;83.15
23016;BME280;11674;52.428;13.584;2023-02-26T01:44:35;101038.66;;;2.48;83.34
23016;BME280;11674;52.428;13.584;2023-02-26T01:49:45;101046.63;;;2.50;83.14
23016;BME280;11674;52.428;13.584;2023-02-26T01:54:52;101047.69;;;2.49;83.12
23016;BME280;11674;52.428;13.584;2023-02-26T01:59:59;101056.53;;;2.51;83.17
23016;BME280;11674;52.428;13.584;2023-02-26T02:05:21;101065.34;;;2.53;83.30
23016;BME280;11674;52.428;13.584;2023-02-26T02:10:31;101070.59;;;2.54;83.28
23016;BME280;11674;52.428;13.584;2023-02-26T02:32:58;101097.41;;;2.64;83.46
23016;BME280;11674;52.428;13.584;2023-02-26T02:38:18;101103.47;;;2.66;83.29
23016;BME280;11674;52.428;13.584;2023-02-26T02:43:29;101103.47;;;2.66;83.33
23016;BME280;11674;52.428;13.584;2023-02-26T02:48:46;101106.22;;;2.66;83.17
23016;BME280;11674;52.428;13.584;2023-02-26T02:53:56;101121.44;;;2.62;83.24
23016;BME280;11674;52.428;13.584;2023-02-26T03:04:22;101133.22;;;2.62;83.38
23016;BME280;11674;52.428;13.584;2023-02-26T03:09:29;101142.06;;;2.64;83.13
23016;BME280;11674;52.428;13.584;2023-02-26T03:14:36;101145.16;;;2.68;83.34
23016;BME280;11674;52.428;13.584;2023-02-26T03:36:38;101174.28;;;2.62;83.18
23016;BME280;11674;52.428;13.584;2023-02-26T03:42:21;101185.00;;;2.64;83.28
23016;BME280;11674;52.428;13.584;2023-02-26T03:47:31;101191.56;;;2.63;83.24
23016;BME280;11674;52.428;13.584;2023-02-26T03:52:42;101202.88;;;2.66;83.31
23016;BME280;11674;52.428;13.584;2023-02-26T03:57:58;101213.25;;;2.64;83.28
23016;BME280;11674;52.428;13.584;2023-02-26T04:03:43;101216.19;;;2.63;83.13
23016;BME280;11674;52.428;13.584;2023-02-26T04:08:51;101226.09;;;2.64;83.35
23016;BME280;11674;52.428;13.584;2023-02-26T04:14:00;101235.97;;;2.65;83.18
23016;BME280;11674;52.428;13.584;2023-02-26T04:19:12;101227.53;;;2.66;83.24
23016;BME280;11674;52.428;13.584;2023-02-26T04:24:20;101244.81;;;2.67;83.22
23016;BME280;11674;52.428;13.584;2023-02-26T04:29:30;101247.53;;;2.67;83.21
23016;BME280;11674;52.428;13.584;2023-02-26T04:34:37;101259.53;;;2.66;83.37
23016;BME280;11674;52.428;13.584;2023-02-26T04:39:44;101270.06;;;2.69;83.21
23016;BME280;11674;52.428;13.584;2023-02-26T04:44:52;101268.38;;;2.68;83.16
23016;BME280;11674;52.428;13.584;2023-02-26T04:50:01;101282.88;;;2.68;83.07
23016;BME280;11674;52.428;13.584;2023-02-26T04:55:07;101286.47;;;2.69;83.25
23016;BME280;11674;52.428;13.584;2023-02-26T05:00:15;101290.66;;;2.71;83.27
23016;BME280;11674;52.428;13.584;2023-02-26T05:05:22;101303.50;;;2.71;83.18
23016;BME280;11674;52.428;13.584;2023-02-26T05:10:29;101310.44;;;2.73;83.17
23016;BME280;11674;52.428;13.584;2023-02-26T05:15:37;101313.44;;;2.72;83.36
23016;BME280;11674;52.428;13.584;2023-02-26T05:20:51;101315.69;;;2.75;83.33
23016;BME280;11674;52.428;13.584;2023-02-26T05:25:58;101314.63;;;2.76;83.25
23016;BME280;11674;52.428;13.584;2023-02-26T05:31:05;101333.78;;;2.76;83.26
23016;BME280;11674;52.428;13.584;2023-02-26T05:36:12;101338.19;;;2.77;83.24
23016;BME280;11674;52.428;13.584;2023-02-26T05:41:19;101339.06;;;2.77;83.21
23016;BME280;11674;52.428;13.584;2023-02-26T05:46:26;101346.41;;;2.77;83.11
23016;BME280;11674;52.428;13.584;2023-02-26T05:51:33;101359.88;;;2.78;83.18
23016;BME280;11674;52.428;13.584;2023-02-26T05:56:40;101370.25;;;2.76;83.24
23016;BME280;11674;52.428;13.584;2023-02-26T06:01:47;101375.72;;;2.76;83.10
23016;BME280;11674;52.428;13.584;2023-02-26T06:06:54;101390.22;;;2.77;83.18
23016;BME280;11674;52.428;13.584;2023-02-26T06:12:01;101390.00;;;2.78;83.17
23016;BME280;11674;52.428;13.584;2023-02-26T06:17:08;101403.94;;;2.77;83.22
23016;BME280;11674;52.428;13.584;2023-02-26T06:22:15;101412.13;;;2.77;83.21
23016;BME280;11674;52.428;13.584;2023-02-26T06:27:23;101418.47;;;2.77;83.10
23016;BME280;11674;52.428;13.584;2023-02-26T06:32:30;101430.72;;;2.75;83.03
23016;BME280;11674;52.428;13.584;2023-02-26T06:37:37;101437.25;;;2.74;83.09
23016;BME280;11674;52.428;13.584;2023-02-26T06:42:44;101440.16;;;2.79;83.23
23016;BME280;11674;52.428;13.584;2023-02-26T06:47:51;101447.69;;;2.83;83.26
23016;BME280;11674;52.428;13.584;2023-02-26T06:52:58;101458.22;;;2.86;83.40
23016;BME280;11674;52.428;13.584;2023-02-26T06:58:05;101474.66;;;2.86;83.21
23016;BME280;11674;52.428;13.584;2023-02-26T07:03:14;101478.91;;;2.82;83.26
23016;BME280;11674;52.428;13.584;2023-02-26T07:08:22;101493.44;;;2.83;83.24
23016;BME280;11674;52.428;13.584;2023-02-26T07:13:36;101503.94;;;2.86;83.41
23016;BME280;11674;52.428;13.584;2023-02-26T07:18:43;101512.53;;;2.89;83.25
23016;BME280;11674;52.428;13.584;2023-02-26T07:23:50;101510.44;;;2.91;83.07
23016;BME280;11674;52.428;13.584;2023-02-26T07:28:57;101523.06;;;2.92;83.15
23016;BME280;11674;52.428;13.584;2023-02-26T07:34:04;101530.22;;;2.93;83.02
23016;BME280;11674;52.428;13.584;2023-02-26T07:39:11;101539.00;;;3.02;83.42
23016;BME280;11674;52.428;13.584;2023-02-26T07:44:18;101551.22;;;3.06;83.29
23016;BME280;11674;52.428;13.584;2023-02-26T07:49:25;101571.16;;;3.13;83.27
23016;BME280;11674;52.428;13.584;2023-02-26T07:54:36;101556.56;;;3.19;83.32
23016;BME280;11674;52.428;13.584;2023-02-26T07:59:42;101563.75;;;3.20;83.21
23016;BME280;11674;52.428;13.584;2023-02-26T08:04:49;101576.41;;;3.21;83.30
23016;BME280;11674;52.428;13.584;2023-02-26T08:09:56;101571.69;;;3.28;83.22
23016;BME280;11674;52.428;13.584;2023-02-26T08:15:04;101583.44;;;3.35;83.30
23016;BME280;11674;52.428;13.584;2023-02-26T08:20:12;101586.31;;;3.46;83.55
23016;BME280;11674;52.428;13.584;2023-02-26T08:25:19;101598.91;;;3.54;83.52
23016;BME280;11674;52.428;13.584;2023-02-26T08:30:26;101602.88;;;3.58;83.25
23016;BME280;11674;52.428;13.584;2023-02-26T08:35:33;101616.94;;;3.68;83.30
23016;BME280;11674;52.428;13.584;2023-02-26T08:40:40;101631.47;;;3.68;83.35
23016;BME280;11674;52.428;13.584;2023-02-26T08:45:47;101622.97;;;3.76;83.26
23016;BME280;11674;52.428;13.584;2023-02-26T08:50:54;101635.78;;;3.82;83.38
23016;BME280;11674;52.428;13.584;2023-02-26T08:56:01;101646.06;;;3.87;83.20
23016;BME280;11674;52.428;13.584;2023-02-26T09:01:08;101647.38;;;4.02;83.67
23016;BME280;11674;52.428;13.584;2023-02-26T09:06:15;101651.47;;;4.18;83.37
23016;BME280;11674;52.428;13.584;2023-02-26T09:11:22;101646.97;;;4.23;83.26
23016;BME280;11674;52.428;13.584;2023-02-26T09:16:30;101667.72;;;4.19;83.16
23016;BME280;11674;52.428;13.584;2023-02-26T09:21:37;101676.56;;;4.21;83.05
23016;BME280;11674;52.428;13.584;2023-02-26T09:26:44;101674.66;;;4.22;83.17
23016;BME280;11674;52.428;13.584;2023-02-26T09:31:51;101689.75;;;4.31;83.02
23016;BME280;11674;52.428;13.584;2023-02-26T09:36:58;101696.88;;;4.38;82.98
23016;BME280;11674;52.428;13.584;2023-02-26T09:47:42;101710.31;;;4.46;83.05
23016;BME280;11674;52.428;13.584;2023-02-26T09:53:19;101705.59;;;4.53;83.01
23016;BME280;11674;52.428;13.584;2023-02-26T09:58:30;101734.34;;;4.69;82.85
23016;BME280;11674;52.428;13.584;2023-02-26T10:20:19;101762.16;;;4.79;82.09
23016;BME280;11674;52.428;13.584;2023-02-26T10:25:49;101761.81;;;4.51;82.16
23016;BME280;11674;52.428;13.584;2023-02-26T10:31:02;101765.16;;;4.53;82.79
23016;BME280;11674;52.428;13.584;2023-02-26T10:41:25;101778.63;;;4.79;82.73
23016;BME280;11674;52.428;13.584;2023-02-26T10:51:56;101793.06;;;4.74;82.81
23016;BME280;11674;52.428;13.584;2023-02-26T10:57:18;101806.41;;;4.71;82.63
23016;BME280;11674;52.428;13.584;2023-02-26T11:02:39;101790.91;;;4.76;82.69
23016;BME280;11674;52.428;13.584;2023-02-26T11:07:51;101806.59;;;4.94;83.04
23016;BME280;11674;52.428;13.584;2023-02-26T11:13:00;101805.44;;;5.19;83.43
23016;BME280;11674;52.428;13.584;2023-02-26T11:18:13;101812.84;;;5.55;83.37
23016;BME280;11674;52.428;13.584;2023-02-26T11:23:23;101794.94;;;5.93;83.59
23016;BME280;11674;52.428;13.584;2023-02-26T11:28:36;101809.06;;;5.85;82.51
23016;BME280;11674;52.428;13.584;2023-02-26T11:33:48;101821.00;;;5.61;81.86
23016;BME280;11674;52.428;13.584;2023-02-26T11:39:00;101823.44;;;5.51;81.82
23016;BME280;11674;52.428;13.584;2023-02-26T11:44:11;101837.38;;;5.38;81.67
23016;BME280;11674;52.428;13.584;2023-02-26T11:49:24;101833.19;;;5.36;81.95
23016;BME280;11674;52.428;13.584;2023-02-26T11:54:34;101839.28;;;5.38;82.20
23016;BME280;11674;52.428;13.584;2023-02-26T11:59:47;101847.53;;;5.56;82.97
23016;BME280;11674;52.428;13.584;2023-02-26T12:04:58;101835.78;;;5.78;82.70
23016;BME280;11674;52.428;13.584;2023-02-26T12:10:14;101832.28;;;5.71;82.05
23016;BME280;11674;52.428;13.584;2023-02-26T12:15:38;101837.72;;;5.78;81.83
23016;BME280;11674;52.428;13.584;2023-02-26T12:21:04;101851.66;;;5.83;81.56
23016;BME280;11674;52.428;13.584;2023-02-26T12:26:33;101851.25;;;5.61;81.56
23016;BME280;11674;52.428;13.584;2023-02-26T12:53:29;101868.47;;;5.57;81.52
23016;BME280;11674;52.428;13.584;2023-02-26T13:09:51;101878.47;;;5.87;81.22
23016;BME280;11674;52.428;13.584;2023-02-26T13:15:25;101890.03;;;5.60;80.91
23016;BME280;11674;52.428;13.584;2023-02-26T13:20:40;101887.22;;;6.14;82.65
23016;BME280;11674;52.428;13.584;2023-02-26T13:25:58;101893.09;;;6.58;82.84
23016;BME280;11674;52.428;13.584;2023-02-26T13:31:18;101889.28;;;6.59;81.87
23016;BME280;11674;52.428;13.584;2023-02-26T13:36:28;101891.53;;;6.62;82.44
23016;BME280;11674;52.428;13.584;2023-02-26T13:52:52;101901.31;;;6.99;80.84
23016;BME280;11674;52.428;13.584;2023-02-26T13:58:15;101904.00;;;6.53;81.06
23016;BME280;11674;52.428;13.584;2023-02-26T14:19:24;101936.34;;;5.63;80.96
23016;BME280;11674;52.428;13.584;2023-02-26T14:24:34;101934.25;;;5.40;80.96
23016;BME280;11674;52.428;13.584;2023-02-26T14:35:10;101940.41;;;5.60;81.88
23016;BME280;11674;52.428;13.584;2023-02-26T14:40:19;101946.00;;;5.90;81.78
23016;BME280;11674;52.428;13.584;2023-02-26T14:45:36;101956.63;;;5.68;80.81
23016;BME280;11674;52.428;13.584;2023-02-26T14:56:10;101963.66;;;5.22;80.52
23016;BME280;11674;52.428;13.584;2023-02-26T15:17:43;101968.97;;;5.17;81.41
23016;BME280;11674;52.428;13.584;2023-02-26T15:28:17;101975.31;;;5.42;81.27
23016;BME280;11674;52.428;13.584;2023-02-26T15:33:28;101975.50;;;5.22;80.65
23016;BME280;11674;52.428;13.584;2023-02-26T15:38:52;101975.84;;;5.08;80.87
23016;BME280;11674;52.428;13.584;2023-02-26T15:44:12;101978.81;;;5.06;80.99
23016;BME280;11674;52.428;13.584;2023-02-26T15:54:48;101997.47;;;5.04;81.29
23016;BME280;11674;52.428;13.584;2023-02-26T16:00:12;101994.38;;;4.94;81.28
23016;BME280;11674;52.428;13.584;2023-02-26T16:05:20;101992.72;;;4.87;81.30
23016;BME280;11674;52.428;13.584;2023-02-26T16:10:37;102002.31;;;4.78;81.18
23016;BME280;11674;52.428;13.584;2023-02-26T16:15:46;101998.97;;;4.69;81.25
23016;BME280;11674;52.428;13.584;2023-02-26T16:20:55;102009.59;;;4.66;81.06
23016;BME280;11674;52.428;13.584;2023-02-26T16:26:29;102014.03;;;4.60;81.25
23016;BME280;11674;52.428;13.584;2023-02-26T16:31:39;102023.56;;;4.58;81.19
23016;BME280;11674;52.428;13.584;2023-02-26T16:36:46;102031.41;;;4.54;81.41
23016;BME280;11674;52.428;13.584;2023-02-26T16:42:07;102035.03;;;4.48;81.47
23016;BME280;11674;52.428;13.584;2023-02-26T16:47:15;102044.59;;;4.39;81.36
23016;BME280;11674;52.428;13.584;2023-02-26T16:52:24;102049.72;;;4.29;81.33
23016;BME280;11674;52.428;13.584;2023-02-26T16:57:39;102059.25;;;4.20;81.42
23016;BME280;11674;52.428;13.584;2023-02-26T17:02:47;102066.91;;;4.12;81.62
23016;BME280;11674;52.428;13.584;2023-02-26T17:08:18;102082.31;;;4.06;81.76
23016;BME280;11674;52.428;13.584;2023-02-26T17:13:27;102084.22;;;4.06;81.75
23016;BME280;11674;52.428;13.584;2023-02-26T17:18:35;102090.53;;;4.06;81.93
23016;BME280;11674;52.428;13.584;2023-02-26T17:23:41;102096.25;;;4.05;81.70
23016;BME280;11674;52.428;13.584;2023-02-26T17:28:52;102103.25;;;4.01;81.88
23016;BME280;11674;52.428;13.584;2023-02-26T17:33:58;102113.38;;;4.00;81.85
23016;BME280;11674;52.428;13.584;2023-02-26T17:39:06;102114.22;;;4.01;81.74
23016;BME280;11674;52.428;13.584;2023-02-26T17:44:12;102118.66;;;4.02;81.97
23016;BME280;11674;52.428;13.584;2023-02-26T17:49:19;102114.63;;;4.04;81.76
23016;BME280;11674;52.428;13.584;2023-02-26T17:54:26;102122.88;;;4.04;81.94
23016;BME280;11674;52.428;13.584;2023-02-26T17:59:33;102126.03;;;4.01;81.85
23016;BME280;11674;52.428;13.584;2023-02-26T18:04:40;102137.25;;;4.00;81.75
23016;BME280;11674;52.428;13.584;2023-02-26T18:09:47;102130.28;;;3.91;81.73
23016;BME280;11674;52.428;13.584;2023-02-26T18:14:54;102144.22;;;3.83;81.67
23016;BME280;11674;52.428;13.584;2023-02-26T18:20:03;102144.44;;;3.75;81.78
23016;BME280;11674;52.428;13.584;2023-02-26T18:25:11;102160.28;;;3.66;81.80
23016;BME280;11674;52.428;13.584;2023-02-26T18:30:37;102161.31;;;3.59;81.87
23016;BME280;11674;52.428;13.584;2023-02-26T18:35:45;102154.16;;;3.51;81.83
23016;BME280;11674;52.428;13.584;2023-02-26T18:40:53;102167.22;;;3.43;81.78
23016;BME280;11674;52.428;13.584;2023-02-26T18:45:59;102166.16;;;3.37;81.97
23016;BME280;11674;52.428;13.584;2023-02-26T18:51:06;102175.88;;;3.33;81.89
23016;BME280;11674;52.428;13.584;2023-02-26T18:56:13;102178.59;;;3.27;81.99
23016;BME280;11674;52.428;13.584;2023-02-26T19:01:20;102175.81;;;3.20;81.79
23016;BME280;11674;52.428;13.584;2023-02-26T19:06:27;102185.31;;;3.18;82.17
23016;BME280;11674;52.428;13.584;2023-02-26T19:11:35;102202.19;;;3.15;81.89
23016;BME280;11674;52.428;13.584;2023-02-26T19:16:42;102211.84;;;3.11;82.09
23016;BME280;11674;52.428;13.584;2023-02-26T19:21:49;102209.94;;;3.05;81.91
23016;BME280;11674;52.428;13.584;2023-02-26T19:26:57;102216.88;;;3.01;82.04
23016;BME280;11674;52.428;13.584;2023-02-26T19:32:05;102211.16;;;2.96;81.87
23016;BME280;11674;52.428;13.584;2023-02-26T19:37:12;102217.03;;;2.93;81.98
23016;BME280;11674;52.428;13.584;2023-02-26T19:42:19;102223.78;;;2.90;82.03
23016;BME280;11674;52.428;13.584;2023-02-26T19:47:26;102223.34;;;2.87;81.95
23016;BME280;11674;52.428;13.584;2023-02-26T19:52:33;102232.81;;;2.84;81.95
23016;BME280;11674;52.428;13.584;2023-02-26T19:57:40;102232.59;;;2.79;81.96
23016;BME280;11674;52.428;13.584;2023-02-26T20:02:47;102228.59;;;2.75;82.09
23016;BME280;11674;52.428;13.584;2023-02-26T20:07:54;102246.66;;;2.70;81.81
23016;BME280;11674;52.428;13.584;2023-02-26T20:13:01;102249.59;;;2.62;82.06
23016;BME280;11674;52.428;13.584;2023-02-26T20:18:09;102255.88;;;2.56;81.93
23016;BME280;11674;52.428;13.584;2023-02-26T20:23:16;102265.72;;;2.50;81.92
23016;BME280;11674;52.428;13.584;2023-02-26T20:28:30;102272.81;;;2.45;82.00
23016;BME280;11674;52.428;13.584;2023-02-26T20:33:38;102276.38;;;2.39;82.18
23016;BME280;11674;52.428;13.584;2023-02-26T20:38:44;102282.66;;;2.33;81.88
23016;BME280;11674;52.428;13.584;2023-02-26T20:43:54;102288.06;;;2.26;82.10
23016;BME280;11674;52.428;13.584;2023-02-26T20:49:17;102295.81;;;2.23;82.09
23016;BME280;11674;52.428;13.584;2023-02-26T20:54:25;102291.66;;;2.27;82.19
23016;BME280;11674;52.428;13.584;2023-02-26T20:59:31;102297.19;;;2.33;82.32
23016;BME280;11674;52.428;13.584;2023-02-26T21:04:39;102303.75;;;2.39;82.30
23016;BME280;11674;52.428;13.584;2023-02-26T21:09:48;102311.81;;;2.47;82.42
23016;BME280;11674;52.428;13.584;2023-02-26T21:14:56;102309.78;;;2.55;82.38
23016;BME280;11674;52.428;13.584;2023-02-26T21:20:03;102314.69;;;2.66;82.38
23016;BME280;11674;52.428;13.584;2023-02-26T21:25:11;102323.78;;;2.73;82.34
23016;BME280;11674;52.428;13.584;2023-02-26T21:30:18;102325.09;;;2.77;82.30
23016;BME280;11674;52.428;13.584;2023-02-26T21:35:25;102328.25;;;2.81;82.31
23016;BME280;11674;52.428;13.584;2023-02-26T21:40:33;102337.59;;;2.86;82.17
23016;BME280;11674;52.428;13.584;2023-02-26T21:45:40;102334.22;;;2.91;82.22
23016;BME280;11674;52.428;13.584;2023-02-26T21:50:46;102344.13;;;2.92;82.19
23016;BME280;11674;52.428;13.584;2023-02-26T21:55:54;102352.16;;;2.93;82.06
23016;BME280;11674;52.428;13.584;2023-02-26T22:01:01;102349.88;;;2.97;81.93
23016;BME280;11674;52.428;13.584;2023-02-26T22:06:08;102349.88;;;2.97;82.24
23016;BME280;11674;52.428;13.584;2023-02-26T22:11:15;102344.38;;;2.97;82.16
23016;BME280;11674;52.428;13.584;2023-02-26T22:16:22;102353.03;;;3.00;82.30
23016;BME280;11674;52.428;13.584;2023-02-26T22:21:29;102356.88;;;3.06;82.42
23016;BME280;11674;52.428;13.584;2023-02-26T22:26:36;102355.44;;;3.10;82.21
23016;BME280;11674;52.428;13.584;2023-02-26T22:31:43;102361.34;;;3.13;82.29
23016;BME280;11674;52.428;13.584;2023-02-26T22:36:50;102363.91;;;3.15;82.20
23016;BME280;11674;52.428;13.584;2023-02-26T22:41:58;102369.38;;;3.15;82.02
23016;BME280;11674;52.428;13.584;2023-02-26T22:47:04;102380.34;;;3.15;82.27
23016;BME280;11674;52.428;13.584;2023-02-26T22:52:11;102376.13;;;3.19;82.14
23016;BME280;11674;52.428;13.584;2023-02-26T22:57:18;102373.00;;;3.22;82.19
23016;BME280;11674;52.428;13.584;2023-02-26T23:02:26;102381.84;;;3.24;82.28
23016;BME280;11674;52.428;13.584;2023-02-26T23:07:34;102383.78;;;3.23;82.17
23016;BME280;11674;52.428;13.584;2023-02-26T23:12:42;102385.25;;;3.26;82.29
23016;BME280;11674;52.428;13.584;2023-02-26T23:17:48;102374.94;;;3.28;82.27
23016;BME280;11674;52.428;13.584;2023-02-26T23:22:55;102377.66;;;3.28;82.09
23016;BME280;11674;52.428;13.584;2023-02-26T23:28:02;102369.19;;;3.23;82.27
23016;BME280;11674;52.428;13.584;2023-02-26T23:33:10;102375.09;;;3.20;82.33
23016;BME280;11674;52.428;13.584;2023-02-26T23:38:17;102379.72;;;3.19;82.47
23016;BME280;11674;52.428;13.584;2023-02-26T23:43:24;102382.91;;;3.23;82.30
23016;BME280;11674;52.428;13.584;2023-02-26T23:48:31;102374.06;;;3.21;82.52
23016;BME280;11674;52.428;13.584;2023-02-26T23:53:38;102372.75;;;3.17;82.33
23016;BME280;11674;52.428;13.584;2023-02-26T23:58:45;102379.06;;;3.11;82.33
